Time;durP1;ratioP1;P1;durP2;ratioP2;P2;SDS_P1;SDS_P2;PMS_P1;PMS_P2;Temp;Humidity;BMP_temperature;BMP_pressure;BME280_temperature;BME280_humidity;BME280_pressure;Samples;Min_cycle;Max_cycle;Signal;HPM_P1;HPM_P2
2021/08/22 00:03:47;;;;;;;30.02;26.92;;;;;;;18.42;100.00;101312.34;10456737;28;20059;-69
2021/08/22 00:08:49;;;;;;;39.17;31.75;;;;;;;18.37;100.00;101311.88;10456414;28;20492;-68
2021/08/22 00:13:52;;;;;;;52.67;36.40;;;;;;;18.50;100.00;101301.94;10457017;28;20049;-68
2021/08/22 00:18:54;;;;;;;29.27;26.15;;;;;;;18.48;100.00;101311.84;10456006;28;20491;-68
2021/08/22 00:23:56;;;;;;;33.08;29.38;;;;;;;18.48;100.00;101306.53;10456871;28;20053;-68
2021/08/22 00:28:59;;;;;;;32.95;28.27;;;;;;;18.37;100.00;101310.09;10455998;28;20404;-66
2021/08/22 00:34:01;;;;;;;32.28;28.95;;;;;;;18.39;100.00;101301.97;10456136;28;20051;-66
2021/08/22 00:39:04;;;;;;;36.05;30.00;;;;;;;18.62;100.00;101296.59;10455752;28;20049;-65
2021/08/22 00:44:07;;;;;;;29.77;26.65;;;;;;;18.49;100.00;101302.94;10456192;28;20052;-66
2021/08/22 00:49:11;;;;;;;26.88;22.88;;;;;;;18.43;100.00;101303.44;10456369;28;20049;-66
2021/08/22 00:54:13;;;;;;;29.70;26.58;;;;;;;18.35;100.00;101297.91;10454905;28;20052;-66
2021/08/22 00:59:17;;;;;;;27.10;24.15;;;;;;;18.28;100.00;101297.59;10455926;28;20076;-65
2021/08/22 01:04:23;;;;;;;24.35;21.42;;;;;;;18.35;100.00;101289.97;10454343;28;20053;-67
2021/08/22 01:09:31;;;;;;;23.60;21.08;;;;;;;18.21;100.00;101293.75;10455018;28;20061;-66
2021/08/22 01:14:40;;;;;;;29.23;22.70;;;;;;;18.23;100.00;101301.59;10455615;28;20052;-66
2021/08/22 01:20:02;;;;;;;30.63;26.73;;;;;;;18.43;100.00;101290.19;10454429;28;20140;-66
2021/08/22 01:25:07;;;;;;;19.80;17.88;;;;;;;18.36;100.00;101295.13;10462296;28;20045;-66
2021/08/22 01:30:12;;;;;;;32.25;26.80;;;;;;;18.23;100.00;101286.53;10461176;28;20055;-66
2021/08/22 01:35:18;;;;;;;27.33;23.92;;;;;;;18.34;100.00;101291.78;10461160;28;20045;-67
2021/08/22 01:40:22;;;;;;;22.52;19.55;;;;;;;18.41;100.00;101297.41;10462065;28;20397;-66
2021/08/22 01:45:24;;;;;;;26.80;24.05;;;;;;;17.98;100.00;101307.06;10460864;28;20059;-66
2021/08/22 01:50:27;;;;;;;27.95;24.92;;;;;;;18.02;100.00;101299.69;10461986;28;20053;-66
2021/08/22 01:55:29;;;;;;;17.33;15.63;;;;;;;18.27;100.00;101297.69;10460347;28;20041;-68
2021/08/22 02:00:32;;;;;;;17.48;15.60;;;;;;;18.11;100.00;101298.13;10460277;28;20045;-67
2021/08/22 02:05:37;;;;;;;14.85;13.32;;;;;;;18.22;100.00;101295.41;10460768;28;20061;-67
2021/08/22 02:11:07;;;;;;;19.25;16.52;;;;;;;18.08;100.00;101296.56;10461140;28;20045;-69
2021/08/22 02:16:13;;;;;;;19.65;17.38;;;;;;;17.82;100.00;101290.69;10458806;28;20055;-67
2021/08/22 02:21:16;;;;;;;20.58;17.40;;;;;;;18.08;100.00;101293.06;10459706;28;20080;-68
2021/08/22 02:26:22;;;;;;;18.45;16.58;;;;;;;18.00;100.00;101298.97;10459363;28;20071;-67
2021/08/22 02:31:27;;;;;;;24.45;20.77;;;;;;;17.80;100.00;101300.56;10460549;28;20095;-68
2021/08/22 02:36:30;;;;;;;22.33;18.35;;;;;;;17.95;100.00;101303.81;10460193;28;20103;-68
2021/08/22 02:41:32;;;;;;;26.67;21.75;;;;;;;17.80;100.00;101300.56;10459185;28;20048;-69
2021/08/22 02:46:34;;;;;;;30.40;23.65;;;;;;;17.69;100.00;101297.94;10459906;28;20045;-68
2021/08/22 02:51:37;;;;;;;29.40;22.83;;;;;;;17.76;100.00;101294.66;10459111;28;20056;-68
2021/08/22 02:56:39;;;;;;;34.08;25.45;;;;;;;17.79;100.00;101302.38;10457990;28;20040;-67
2021/08/22 03:01:42;;;;;;;36.97;26.58;;;;;;;17.67;100.00;101298.06;10459161;28;20059;-70
2021/08/22 03:06:44;;;;;;;33.83;25.23;;;;;;;17.56;100.00;101295.41;10458454;28;20041;-69
2021/08/22 03:11:47;;;;;;;31.17;24.33;;;;;;;17.68;100.00;101294.44;10458667;28;20057;-70
2021/08/22 03:16:49;;;;;;;39.10;27.70;;;;;;;17.64;100.00;101298.31;10458849;28;20045;-68
2021/08/22 03:21:51;;;;;;;37.38;26.75;;;;;;;17.40;100.00;101283.41;10458458;28;20060;-68
2021/08/22 03:26:54;;;;;;;37.45;27.92;;;;;;;17.21;100.00;101285.78;10457938;28;20045;-68
2021/08/22 03:31:56;;;;;;;43.97;32.38;;;;;;;17.32;100.00;101284.97;10458190;28;20052;-69
2021/08/22 03:36:58;;;;;;;55.72;38.17;;;;;;;17.23;100.00;101282.06;10457512;28;20064;-68
2021/08/22 03:42:01;;;;;;;64.72;39.97;;;;;;;17.17;100.00;101273.78;10457365;28;20496;-70
2021/08/22 03:47:03;;;;;;;45.13;32.25;;;;;;;17.39;100.00;101275.56;10456453;28;20382;-67
2021/08/22 03:52:06;;;;;;;62.47;42.13;;;;;;;17.13;100.00;101275.81;10457165;28;20049;-68
2021/08/22 03:57:08;;;;;;;53.00;35.80;;;;;;;17.37;100.00;101275.69;10456765;28;20389;-68
2021/08/22 04:02:10;;;;;;;55.85;39.90;;;;;;;17.28;100.00;101276.41;10457052;28;20056;-69
2021/08/22 04:07:13;;;;;;;44.45;33.35;;;;;;;17.57;100.00;101278.56;10457015;28;20045;-68
2021/08/22 04:12:16;;;;;;;47.35;32.75;;;;;;;17.33;100.00;101282.19;10456802;28;20052;-67
2021/08/22 04:17:18;;;;;;;41.72;31.27;;;;;;;17.46;100.00;101282.06;10456268;28;20048;-67
2021/08/22 04:22:20;;;;;;;55.45;40.55;;;;;;;17.15;100.00;101287.13;10456350;28;20057;-69
2021/08/22 04:27:22;;;;;;;43.20;31.67;;;;;;;17.38;100.00;101289.75;10456035;28;20049;-69
2021/08/22 04:32:25;;;;;;;48.97;34.42;;;;;;;17.28;100.00;101297.56;10456658;28;20055;-68
2021/08/22 04:37:28;;;;;;;57.67;38.35;;;;;;;17.27;100.00;101298.53;10456055;28;20045;-68
2021/08/22 04:42:30;;;;;;;64.43;42.78;;;;;;;17.09;100.00;101298.16;10455921;28;20475;-69
2021/08/22 04:47:32;;;;;;;65.22;40.58;;;;;;;17.39;100.00;101297.59;10455684;28;20045;-68
2021/08/22 04:52:35;;;;;;;73.90;43.78;;;;;;;17.26;100.00;101308.31;10455835;28;20041;-69
2021/08/22 04:57:37;;;;;;;48.33;33.72;;;;;;;17.44;100.00;101305.16;10459712;28;20048;-69
2021/08/22 05:02:40;;;;;;;57.70;37.28;;;;;;;17.45;100.00;101314.81;10463619;28;20485;-67
2021/08/22 05:07:42;;;;;;;70.13;40.83;;;;;;;17.21;100.00;101318.38;10464119;28;20049;-67
2021/08/22 05:12:45;;;;;;;86.38;48.33;;;;;;;17.33;100.00;101316.59;10463350;28;20045;-68
2021/08/22 05:17:47;;;;;;;76.20;45.90;;;;;;;17.40;100.00;101312.50;10462791;28;20045;-67
2021/08/22 05:22:49;;;;;;;78.07;44.45;;;;;;;17.57;100.00;101323.59;10463384;28;20053;-67
2021/08/22 05:27:52;;;;;;;73.65;48.30;;;;;;;17.27;100.00;101317.91;10462598;28;20056;-68
2021/08/22 05:32:54;;;;;;;63.65;40.67;;;;;;;17.59;100.00;101317.19;10462892;28;20068;-67
2021/08/22 05:37:57;;;;;;;51.63;33.50;;;;;;;17.63;100.00;101301.91;10462138;28;20053;-68
2021/08/22 05:43:00;;;;;;;55.85;37.33;;;;;;;17.50;100.00;101315.28;10462012;28;20049;-66
2021/08/22 05:48:03;;;;;;;69.55;43.00;;;;;;;17.28;100.00;101331.97;10462040;28;20052;-67
2021/08/22 05:53:05;;;;;;;73.05;43.95;;;;;;;17.31;100.00;101331.72;10462192;28;20045;-67
2021/08/22 05:58:07;;;;;;;71.43;45.28;;;;;;;17.26;100.00;101332.13;10461538;28;20045;-68
2021/08/22 06:03:10;;;;;;;80.07;45.50;;;;;;;17.55;100.00;101336.94;10461407;28;20052;-68
2021/08/22 06:08:12;;;;;;;51.13;33.88;;;;;;;17.80;100.00;101348.22;10460775;28;20132;-68
2021/08/22 06:13:15;;;;;;;59.80;36.50;;;;;;;17.73;100.00;101349.69;10461052;28;20053;-67
2021/08/22 06:18:17;;;;;;;62.53;40.55;;;;;;;17.60;100.00;101345.38;10460285;28;20386;-67
2021/08/22 06:23:20;;;;;;;51.45;36.03;;;;;;;17.52;100.00;101342.47;10460546;28;20049;-68
2021/08/22 06:28:22;;;;;;;64.25;40.85;;;;;;;17.35;100.00;101341.13;10460189;28;20045;-68
2021/08/22 06:33:24;;;;;;;68.50;43.97;;;;;;;17.50;100.00;101346.19;10460644;28;20049;-67
2021/08/22 06:38:27;;;;;;;62.33;43.10;;;;;;;17.43;100.00;101345.81;10460148;28;20045;-69
2021/08/22 06:43:29;;;;;;;52.47;36.95;;;;;;;17.68;100.00;101334.16;10460024;28;20053;-68
2021/08/22 06:48:32;;;;;;;46.05;35.15;;;;;;;17.74;100.00;101341.63;10459633;28;20056;-67
2021/08/22 06:53:34;;;;;;;48.58;35.28;;;;;;;17.52;100.00;101349.59;10459581;28;20060;-66
2021/08/22 06:58:37;;;;;;;47.58;34.08;;;;;;;17.83;100.00;101353.28;10459123;28;20048;-67
2021/08/22 07:03:39;;;;;;;52.45;36.45;;;;;;;17.76;100.00;101346.78;10458879;28;20405;-68
2021/08/22 07:08:42;;;;;;;39.65;29.95;;;;;;;17.86;100.00;101354.88;10459136;28;20136;-67
2021/08/22 07:13:44;;;;;;;48.20;33.15;;;;;;;17.80;100.00;101358.81;10458218;28;20060;-67
2021/08/22 07:18:46;;;;;;;48.40;35.17;;;;;;;17.94;100.00;101363.91;10458182;28;20056;-66
2021/08/22 07:23:49;;;;;;;44.35;32.92;;;;;;;18.52;100.00;101373.41;10458208;28;20120;-68
2021/08/22 07:28:51;;;;;;;42.90;30.65;;;;;;;18.82;100.00;101361.25;10457769;28;20051;-68
2021/08/22 07:33:53;;;;;;;37.17;28.05;;;;;;;18.84;100.00;101360.16;10458314;28;20069;-69
2021/08/22 07:38:56;;;;;;;38.85;29.05;;;;;;;18.61;100.00;101372.66;10457640;28;20077;-68
2021/08/22 07:43:58;;;;;;;37.58;29.25;;;;;;;18.96;100.00;101368.91;10457913;28;20060;-70
2021/08/22 07:49:00;;;;;;;34.40;28.42;;;;;;;18.93;100.00;101372.66;10457311;28;20048;-69
2021/08/22 07:54:03;;;;;;;36.20;28.45;;;;;;;18.56;100.00;101386.28;10458221;28;20061;-68
2021/08/22 07:59:05;;;;;;;36.55;24.63;;;;;;;19.16;100.00;101384.97;10456881;28;20056;-69
2021/08/22 08:04:07;;;;;;;37.70;27.80;;;;;;;19.01;100.00;101387.09;10456800;28;20053;-67
2021/08/22 08:09:10;;;;;;;42.85;30.88;;;;;;;19.07;100.00;101391.91;10456961;28;20049;-68
2021/08/22 08:14:12;;;;;;;31.38;24.60;;;;;;;18.92;100.00;101401.97;10456490;28;20056;-67
2021/08/22 08:19:15;;;;;;;42.80;31.20;;;;;;;18.62;100.00;101398.19;10456510;28;20060;-66
2021/08/22 08:24:17;;;;;;;30.35;25.83;;;;;;;18.45;100.00;101410.19;10456481;28;20053;-67
2021/08/22 08:29:19;;;;;;;37.47;28.35;;;;;;;18.81;100.00;101396.69;10456605;28;20049;-65
2021/08/22 08:34:21;;;;;;;34.80;25.17;;;;;;;19.23;100.00;101392.28;10464766;28;20053;-66
2021/08/22 08:39:24;;;;;;;28.17;23.50;;;;;;;19.58;100.00;101392.88;10464717;28;20056;-66
2021/08/22 08:44:26;;;;;;;27.45;23.40;;;;;;;20.57;100.00;101383.25;10464124;28;20128;-67
2021/08/22 08:49:37;;;;;;;25.23;20.48;;;;;;;21.34;100.00;101386.84;10464253;28;20041;-67
2021/08/22 08:54:50;;;;;;;22.80;20.48;;;;;;;21.36;98.23;101385.88;10464504;28;20048;-67
2021/08/22 08:59:53;;;;;;;19.35;17.33;;;;;;;21.76;92.90;101387.47;10464035;28;20045;-67
2021/08/22 09:04:58;;;;;;;23.73;19.50;;;;;;;21.51;94.29;101385.28;10464434;28;20049;-67
2021/08/22 09:10:39;;;;;;;19.60;17.58;;;;;;;20.53;93.81;101383.69;10463746;28;20056;-67
2021/08/22 09:16:11;;;;;;;16.80;14.98;;;;;;;20.63;96.81;101383.72;10440559;28;20055;-66
2021/08/22 09:21:51;;;;;;;19.70;16.50;;;;;;;20.37;100.00;101393.03;10463453;28;20072;-68
2021/08/22 09:27:15;;;;;;;20.13;17.50;;;;;;;20.10;100.00;101396.34;10463312;28;20057;-67
2021/08/22 09:32:56;;;;;;;18.15;16.13;;;;;;;19.88;100.00;101394.72;10462912;28;20068;-67
2021/08/22 09:38:23;;;;;;;18.70;16.25;;;;;;;19.57;100.00;101392.06;10462340;28;20077;-67
2021/08/22 09:44:10;;;;;;;15.35;13.65;;;;;;;20.33;100.00;101394.28;10461377;28;20053;-66
2021/08/22 09:49:51;;;;;;;13.88;11.95;;;;;;;20.89;99.91;101394.63;10461707;28;20531;-66
2021/08/22 09:55:05;;;;;;;9.50;8.40;;;;;;;20.67;99.32;101395.75;10411548;28;20052;-66
2021/08/22 10:00:38;;;;;;;7.47;6.68;;;;;;;20.47;99.05;101394.88;10461458;28;20485;-68
2021/08/22 10:06:02;;;;;;;6.85;6.25;;;;;;;21.73;95.03;101387.75;10461816;28;20051;-66
2021/08/22 10:11:05;;;;;;;6.60;5.82;;;;;;;20.98;92.11;101391.16;10460662;28;20052;-68
2021/08/22 10:16:08;;;;;;;5.93;5.30;;;;;;;22.15;91.50;101393.41;10459651;28;20049;-68
2021/08/22 10:21:11;;;;;;;6.75;5.32;;;;;;;23.34;89.37;101381.66;10461316;28;20052;-66
2021/08/22 10:26:44;;;;;;;7.43;6.72;;;;;;;22.38;84.17;101393.03;10460949;28;20060;-67
2021/08/22 10:31:49;;;;;;;8.88;6.88;;;;;;;21.71;86.26;101390.56;10460652;28;20413;-67
2021/08/22 10:36:52;;;;;;;7.57;6.88;;;;;;;21.43;89.65;101386.97;10459762;28;20412;-67
2021/08/22 10:42:18;;;;;;;7.72;6.97;;;;;;;21.22;91.61;101389.84;10460114;28;20048;-66
2021/08/22 10:47:20;;;;;;;9.32;8.43;;;;;;;21.24;91.29;101394.03;10459759;28;20061;-67
2021/08/22 10:52:33;;;;;;;11.27;10.18;;;;;;;20.89;91.98;101381.34;10459577;28;20048;-66
2021/08/22 10:57:44;;;;;;;11.00;9.90;;;;;;;21.61;88.24;101390.59;10458991;28;20045;-66
2021/08/22 11:02:47;;;;;;;10.63;9.68;;;;;;;21.24;91.33;101378.06;10459123;28;20049;-67
2021/08/22 11:07:52;;;;;;;12.35;11.15;;;;;;;20.86;93.43;101392.25;10459431;28;20044;-67
2021/08/22 11:12:55;;;;;;;14.07;12.75;;;;;;;20.80;95.09;101390.19;10458878;28;20055;-66
2021/08/22 11:18:00;;;;;;;12.80;11.50;;;;;;;20.58;94.46;101394.75;10458418;28;20045;-67
2021/08/22 11:23:03;;;;;;;13.38;10.95;;;;;;;20.24;96.14;101389.81;10458584;28;20056;-66
2021/08/22 11:28:10;;;;;;;10.00;9.00;;;;;;;20.71;95.45;101390.03;10457959;28;20052;-66
2021/08/22 11:33:13;;;;;;;11.00;9.90;;;;;;;20.48;96.37;101386.75;10457783;28;20408;-66
2021/08/22 11:38:16;;;;;;;9.60;8.63;;;;;;;20.66;94.80;101386.09;10457430;28;20056;-66
2021/08/22 11:43:19;;;;;;;9.23;8.25;;;;;;;21.45;88.27;101385.00;10457372;28;20045;-67
2021/08/22 11:48:22;;;;;;;8.82;7.88;;;;;;;22.19;86.78;101391.28;10457491;28;20041;-66
2021/08/22 11:53:29;;;;;;;10.90;8.13;;;;;;;22.13;87.14;101397.22;10457225;28;20045;-67
2021/08/22 11:58:35;;;;;;;10.52;8.32;;;;;;;22.45;85.59;101389.59;10456920;28;20045;-66
2021/08/22 12:03:37;;;;;;;8.15;7.35;;;;;;;21.78;87.04;101390.81;10456879;28;20507;-67
2021/08/22 12:08:47;;;;;;;9.50;7.47;;;;;;;22.84;81.81;101392.97;10456620;28;20077;-67
2021/08/22 12:13:51;;;;;;;9.07;7.68;;;;;;;21.89;82.94;101395.97;10456710;28;20056;-66
2021/08/22 12:18:55;;;;;;;11.57;9.65;;;;;;;22.67;81.05;101395.47;10456459;28;20487;-66
2021/08/22 12:23:57;;;;;;;11.43;9.27;;;;;;;22.73;77.72;101400.22;10456430;28;20064;-66
2021/08/22 12:29:10;;;;;;;11.60;8.57;;;;;;;22.56;79.03;101403.69;10455161;28;20048;-66
2021/08/22 12:34:17;;;;;;;11.32;10.13;;;;;;;23.70;75.80;101397.56;10456407;28;20044;-66
2021/08/22 12:39:20;;;;;;;11.65;10.55;;;;;;;23.49;73.91;101396.13;10455445;28;20045;-66
2021/08/22 12:44:24;;;;;;;11.05;9.68;;;;;;;22.68;81.45;101394.50;10456006;28;20052;-66
2021/08/22 12:49:27;;;;;;;13.50;10.00;;;;;;;23.55;83.10;101392.81;10456033;28;20048;-66
2021/08/22 12:54:30;;;;;;;9.70;8.57;;;;;;;24.08;78.37;101377.50;10455702;28;20053;-66
2021/08/22 12:59:33;;;;;;;8.85;7.80;;;;;;;24.72;70.14;101374.31;10455886;28;20055;-67
2021/08/22 13:04:35;;;;;;;8.43;7.60;;;;;;;24.94;71.66;101380.00;10456033;28;20053;-66
2021/08/22 13:09:38;;;;;;;8.18;7.38;;;;;;;24.73;70.32;101373.31;10455561;28;20047;-66
2021/08/22 13:14:41;;;;;;;8.23;5.93;;;;;;;24.76;69.80;101382.81;10455517;28;20052;-66
2021/08/22 13:19:43;;;;;;;6.53;5.90;;;;;;;25.60;69.15;101372.66;10461462;28;20373;-65
2021/08/22 13:24:45;;;;;;;6.10;5.55;;;;;;;23.37;72.83;101381.34;10462922;28;20080;-66
2021/08/22 13:29:48;;;;;;;6.25;5.25;;;;;;;24.74;69.08;101392.88;10462560;28;20393;-66
2021/08/22 13:34:50;;;;;;;8.45;5.35;;;;;;;23.18;79.97;101395.75;10462422;28;20497;-65
2021/08/22 13:39:52;;;;;;;4.60;3.78;;;;;;;25.81;70.59;101376.63;10462631;28;20520;-67
2021/08/22 13:44:55;;;;;;;4.65;3.30;;;;;;;26.66;66.64;101386.53;10462791;28;20052;-66
2021/08/22 13:49:57;;;;;;;5.53;3.85;;;;;;;23.51;72.70;101383.44;10461816;28;20040;-64
2021/08/22 13:55:00;;;;;;;5.38;3.45;;;;;;;26.81;64.80;101389.28;10462281;28;20056;-66
2021/08/22 14:00:04;;;;;;;5.40;3.17;;;;;;;25.81;68.93;101390.03;10461474;28;20045;-66
2021/08/22 14:05:07;;;;;;;3.63;3.03;;;;;;;27.17;67.69;101380.56;10463132;28;20170;-66
2021/08/22 14:10:09;;;;;;;4.60;3.22;;;;;;;26.31;63.30;101375.38;10460849;28;20052;-66
2021/08/22 14:15:12;;;;;;;3.70;3.40;;;;;;;26.33;61.37;101382.22;10460993;28;20485;-66
2021/08/22 14:20:14;;;;;;;4.93;3.47;;;;;;;25.95;73.04;101376.72;10460475;28;20433;-66
2021/08/22 14:25:17;;;;;;;4.40;3.47;;;;;;;25.87;69.54;101381.28;10460495;28;20049;-65
2021/08/22 14:30:19;;;;;;;5.32;4.05;;;;;;;26.48;66.26;101390.34;10460206;28;20045;-66
2021/08/22 14:35:22;;;;;;;4.63;4.22;;;;;;;26.38;65.32;101389.75;10460086;28;20056;-66
2021/08/22 14:40:24;;;;;;;6.57;4.57;;;;;;;24.42;73.00;101387.28;10460615;28;20051;-67
2021/08/22 14:45:27;;;;;;;2.95;2.70;;;;;;;23.64;77.95;101388.34;10459883;28;20128;-66
2021/08/22 14:50:29;;;;;;;4.32;3.85;;;;;;;23.95;77.18;101390.50;10459376;28;20041;-66
2021/08/22 14:55:32;;;;;;;4.22;3.53;;;;;;;23.12;78.23;101391.03;10458101;28;20059;-65
2021/08/22 15:00:34;;;;;;;2.15;2.00;;;;;;;22.82;81.87;101398.44;10459160;28;20045;-65
2021/08/22 15:05:36;;;;;;;2.03;1.73;;;;;;;23.67;75.93;101397.88;10459053;28;20073;-66
2021/08/22 15:10:40;;;;;;;2.67;1.60;;;;;;;24.23;75.00;101395.63;10458649;28;20076;-66
2021/08/22 15:15:43;;;;;;;2.40;2.20;;;;;;;24.73;72.00;101399.22;10458542;28;20057;-66
2021/08/22 15:20:45;;;;;;;2.40;1.50;;;;;;;23.65;79.18;101400.69;10458848;28;20052;-67
2021/08/22 15:25:48;;;;;;;2.22;2.00;;;;;;;23.75;77.08;101408.59;10457892;28;20053;-66
2021/08/22 15:30:50;;;;;;;2.00;1.77;;;;;;;24.90;67.75;101403.59;10457815;28;20485;-66
2021/08/22 15:35:52;;;;;;;1.95;1.75;;;;;;;24.74;70.17;101414.28;10456450;28;20436;-67
2021/08/22 15:40:55;;;;;;;2.28;2.13;;;;;;;24.90;67.94;101406.28;10456692;28;20044;-66
2021/08/22 15:45:57;;;;;;;1.77;1.65;;;;;;;23.54;71.38;101398.31;10457577;28;20052;-66
2021/08/22 15:50:59;;;;;;;2.65;1.70;;;;;;;23.76;71.83;101394.25;10457098;28;20049;-67
2021/08/22 15:56:02;;;;;;;2.85;2.55;;;;;;;23.48;73.71;101401.63;10455976;28;20056;-66
2021/08/22 16:01:05;;;;;;;2.08;1.98;;;;;;;23.74;72.16;101409.63;10457061;28;20060;-67
2021/08/22 16:06:08;;;;;;;2.25;2.10;;;;;;;22.29;76.13;101416.09;10456454;28;20132;-65
2021/08/22 16:11:12;;;;;;;2.85;2.40;;;;;;;22.67;78.31;101411.50;10456625;28;20048;-66
2021/08/22 16:16:14;;;;;;;3.22;2.38;;;;;;;22.38;80.38;101417.88;10456979;28;20052;-66
2021/08/22 16:21:16;;;;;;;2.25;2.10;;;;;;;22.25;80.09;101423.53;10456658;28;20053;-68
2021/08/22 16:26:20;;;;;;;3.83;2.60;;;;;;;22.40;79.98;101433.75;10456180;28;20049;-66
2021/08/22 16:31:24;;;;;;;4.03;2.83;;;;;;;21.78;83.22;101436.94;10456859;28;20056;-66
2021/08/22 16:36:27;;;;;;;4.68;3.53;;;;;;;21.27;85.37;101454.16;10456154;28;20057;-66
2021/08/22 16:41:32;;;;;;;3.15;2.85;;;;;;;20.78;88.65;101459.50;10456573;28;20057;-65
2021/08/22 16:46:34;;;;;;;3.20;1.55;;;;;;;20.38;91.81;101458.53;10455970;28;20416;-66
2021/08/22 16:51:37;;;;;;;3.85;1.75;;;;;;;20.25;91.04;101452.63;10458472;28;20052;-67
2021/08/22 16:56:39;;;;;;;1.55;1.38;;;;;;;20.00;92.89;101459.25;10463888;28;20049;-65
2021/08/22 17:01:42;;;;;;;1.85;1.75;;;;;;;20.22;91.53;101458.22;10463885;28;20044;-67
2021/08/22 17:06:44;;;;;;;2.05;1.33;;;;;;;20.69;90.54;101452.31;10462376;28;20564;-67
2021/08/22 17:11:47;;;;;;;3.33;1.63;;;;;;;20.37;94.82;101453.34;10463560;28;20045;-66
2021/08/22 17:16:49;;;;;;;1.88;1.77;;;;;;;19.66;94.91;101456.81;10463700;28;20045;-65
2021/08/22 17:21:51;;;;;;;2.75;1.70;;;;;;;20.55;95.12;101458.88;10463246;28;20053;-64
2021/08/22 17:26:54;;;;;;;2.85;1.80;;;;;;;20.12;97.33;101462.66;10463149;28;20052;-65
2021/08/22 17:31:56;;;;;;;1.83;1.73;;;;;;;19.83;100.00;101466.84;10463327;28;20045;-64
2021/08/22 17:36:59;;;;;;;3.08;1.95;;;;;;;19.86;98.99;101471.91;10462470;28;20056;-64
2021/08/22 17:42:02;;;;;;;2.92;2.08;;;;;;;19.56;100.00;101474.53;10461522;28;20490;-64
2021/08/22 17:47:05;;;;;;;2.05;1.77;;;;;;;19.45;100.00;101475.41;10462515;28;20500;-65
2021/08/22 17:52:09;;;;;;;2.22;2.13;;;;;;;19.19;100.00;101493.53;10461845;28;20507;-65
2021/08/22 17:57:11;;;;;;;3.00;2.38;;;;;;;19.33;100.00;101503.84;10461872;28;20070;-65
2021/08/22 18:02:14;;;;;;;2.53;2.30;;;;;;;19.55;100.00;101508.22;10460891;28;20417;-65
2021/08/22 18:07:16;;;;;;;3.78;2.42;;;;;;;19.20;100.00;101519.09;10461308;28;20064;-65
2021/08/22 18:12:19;;;;;;;6.70;2.70;;;;;;;18.91;100.00;101520.53;10461080;28;20405;-65
2021/08/22 18:17:21;;;;;;;2.85;2.60;;;;;;;18.83;100.00;101525.63;10460616;28;20071;-64
2021/08/22 18:22:24;;;;;;;3.40;2.70;;;;;;;19.24;100.00;101521.38;10461023;28;20535;-64
2021/08/22 18:27:26;;;;;;;3.35;3.03;;;;;;;19.02;100.00;101522.31;10460845;28;20417;-65
2021/08/22 18:32:29;;;;;;;4.78;3.53;;;;;;;18.89;100.00;101525.09;10460765;28;20041;-66
2021/08/22 18:37:31;;;;;;;5.00;4.55;;;;;;;18.96;100.00;101521.97;10460216;28;20052;-64
2021/08/22 18:42:36;;;;;;;4.03;3.70;;;;;;;19.08;100.00;101531.56;10459967;28;20061;-65
2021/08/22 18:47:39;;;;;;;4.80;4.30;;;;;;;18.75;100.00;101539.47;10459686;28;20436;-65
2021/08/22 18:52:41;;;;;;;4.90;4.22;;;;;;;18.52;100.00;101543.09;10460151;28;20052;-64
2021/08/22 18:57:45;;;;;;;5.60;4.80;;;;;;;18.48;100.00;101547.81;10459147;28;20053;-65
2021/08/22 19:02:47;;;;;;;7.13;5.35;;;;;;;18.72;100.00;101554.78;10459088;28;20053;-65
2021/08/22 19:07:50;;;;;;;4.80;4.32;;;;;;;18.87;100.00;101561.53;10458713;28;20051;-65
2021/08/22 19:12:53;;;;;;;6.03;5.38;;;;;;;18.63;100.00;101566.13;10458846;28;20045;-64
2021/08/22 19:17:55;;;;;;;6.68;5.93;;;;;;;18.34;100.00;101579.84;10457967;28;20056;-64
2021/08/22 19:22:57;;;;;;;9.35;6.93;;;;;;;18.43;100.00;101587.09;10458477;28;20049;-65
2021/08/22 19:28:00;;;;;;;7.90;7.10;;;;;;;18.29;100.00;101587.31;10458212;28;20049;-63
2021/08/22 19:33:04;;;;;;;7.70;6.68;;;;;;;18.34;100.00;101583.38;10457799;28;20511;-65
2021/08/22 19:38:08;;;;;;;8.75;7.50;;;;;;;18.22;100.00;101581.66;10457706;28;20436;-66
2021/08/22 19:43:11;;;;;;;9.77;8.73;;;;;;;17.97;100.00;101580.91;10457619;28;20370;-65
2021/08/22 19:48:13;;;;;;;9.70;7.45;;;;;;;18.37;100.00;101584.91;10457340;28;20048;-65
2021/08/22 19:53:16;;;;;;;6.38;5.78;;;;;;;17.96;100.00;101584.50;10458499;28;20041;-65
2021/08/22 19:58:18;;;;;;;7.25;6.53;;;;;;;17.99;100.00;101594.88;10456909;28;20049;-66
2021/08/22 20:03:20;;;;;;;7.82;6.30;;;;;;;18.17;100.00;101597.94;10457822;28;20045;-66
2021/08/22 20:08:23;;;;;;;8.48;5.70;;;;;;;18.28;100.00;101604.22;10457056;28;20045;-66
2021/08/22 20:13:25;;;;;;;7.22;6.53;;;;;;;17.81;100.00;101605.03;10457122;28;20045;-66
2021/08/22 20:18:27;;;;;;;6.63;6.03;;;;;;;17.94;100.00;101607.63;10456378;28;20045;-67
2021/08/22 20:23:30;;;;;;;7.07;6.40;;;;;;;17.71;100.00;101604.03;10456539;28;20049;-69
2021/08/22 20:28:32;;;;;;;8.75;7.10;;;;;;;17.92;100.00;101600.75;10465890;28;20049;-68
2021/08/22 20:33:35;;;;;;;9.75;8.20;;;;;;;17.52;100.00;101603.72;10470354;28;20111;-68
2021/08/22 20:38:37;;;;;;;7.47;6.78;;;;;;;17.61;100.00;101603.03;10469851;28;20396;-69
2021/08/22 20:43:41;;;;;;;7.65;6.38;;;;;;;17.64;100.00;101601.00;10470346;28;20041;-67
2021/08/22 20:48:43;;;;;;;6.68;6.05;;;;;;;17.81;100.00;101602.38;10469658;28;20060;-70
2021/08/22 20:53:47;;;;;;;11.60;6.30;;;;;;;17.54;100.00;101615.03;10470258;28;20041;-69
2021/08/22 20:58:50;;;;;;;8.13;6.50;;;;;;;17.78;100.00;101609.72;10469401;28;20045;-69
2021/08/22 21:03:52;;;;;;;9.48;8.05;;;;;;;17.98;100.00;101603.78;10469194;28;20052;-69
2021/08/22 21:08:55;;;;;;;8.90;8.00;;;;;;;17.64;100.00;101597.50;10469334;28;20055;-68
2021/08/22 21:13:59;;;;;;;12.05;10.85;;;;;;;17.45;100.00;101600.69;10468838;28;20045;-71
2021/08/22 21:19:02;;;;;;;12.18;10.82;;;;;;;17.72;100.00;101595.13;10469310;28;20053;-72
2021/08/22 21:24:04;;;;;;;12.27;9.40;;;;;;;17.80;100.00;101599.84;10468126;28;20065;-71
2021/08/22 21:29:06;;;;;;;11.60;9.75;;;;;;;17.37;100.00;101601.25;10469577;28;20041;-72
2021/08/22 21:34:09;;;;;;;9.25;6.63;;;;;;;17.70;100.00;101607.66;10469158;28;20048;-74
2021/08/22 21:39:12;;;;;;;6.72;6.03;;;;;;;17.59;100.00;101607.59;10465126;28;20045;-72
2021/08/22 21:44:15;;;;;;;3.97;3.67;;;;;;;17.91;100.00;101607.84;10462421;28;20057;-71
2021/08/22 21:49:18;;;;;;;6.13;5.53;;;;;;;17.77;100.00;101602.72;10460963;28;20052;-70
2021/08/22 21:54:20;;;;;;;6.05;4.30;;;;;;;17.80;100.00;101607.78;10461818;28;20079;-69
2021/08/22 21:59:22;;;;;;;5.35;4.85;;;;;;;17.75;100.00;101617.88;10461709;28;20052;-68
2021/08/22 22:04:25;;;;;;;7.72;6.93;;;;;;;17.70;100.00;101620.03;10461871;28;20052;-68
2021/08/22 22:09:27;;;;;;;6.95;5.10;;;;;;;18.05;100.00;101622.69;10461141;28;20045;-66
2021/08/22 22:14:30;;;;;;;8.48;7.68;;;;;;;17.96;100.00;101629.53;10461654;28;20041;-69
2021/08/22 22:19:33;;;;;;;10.10;9.05;;;;;;;17.68;100.00;101632.53;10460600;28;20507;-69
2021/08/22 22:24:35;;;;;;;12.90;8.80;;;;;;;17.69;100.00;101635.09;10460839;28;20066;-69
2021/08/22 22:29:37;;;;;;;17.10;14.20;;;;;;;17.78;100.00;101629.09;10460486;28;20051;-70
2021/08/22 22:34:40;;;;;;;15.13;13.38;;;;;;;17.41;100.00;101637.09;10460382;28;20041;-70
2021/08/22 22:39:42;;;;;;;12.40;11.10;;;;;;;17.61;100.00;101638.28;10460026;28;20493;-71
2021/08/22 22:44:44;;;;;;;11.13;10.10;;;;;;;17.63;100.00;101643.47;10460396;28;20055;-70
2021/08/22 22:49:47;;;;;;;21.17;16.17;;;;;;;17.51;100.00;101657.63;10459625;28;20041;-70
2021/08/22 22:54:49;;;;;;;20.33;16.70;;;;;;;17.45;100.00;101649.16;10459961;28;20041;-70